Time;durP1;ratioP1;P1;durP2;ratioP2;P2;SDS_P1;SDS_P2;PMS_P1;PMS_P2;Temp;Humidity;BMP_temperature;BMP_pressure;BME280_temperature;BME280_humidity;BME280_pressure;Samples;Min_cycle;Max_cycle;Signal;HPM_P1;HPM_P2
2022/06/01 00:04:47;;;;;;;6.87;2.42;;;;;;;11.95;100.00;101119.12;1295602;108;21297;-76
2022/06/01 00:07:19;;;;;;;2.83;2.17;;;;;;;11.93;100.00;101118.69;1313495;105;21409;-76
2022/06/01 00:09:59;;;;;;;;;;;;;;;;;;;;;
2022/06/01 03:20:09;;;;;;;;;;;;;;;;;;;;;
2022/06/01 03:22:35;;;;;;;5.67;2.52;;;;;;;10.78;100.00;101104.22;1623783;87;21220;-74
2022/06/01 03:25:00;;;;;;;9.33;2.62;;;;;;;10.66;100.00;101106.68;1673629;84;21227;-74
2022/06/01 03:28:00;;;;;;;;;;;;;;;;;;;;;
2022/06/01 03:30:10;;;;;;;;;;;;;;;;;;;;;
2022/06/01 03:32:43;;;;;;;;;;;;;;;;;;;;;
2022/06/01 03:35:18;;;;;;;;;;;;;;;;;;;;;
2022/06/01 03:37:48;;;;;;;4.95;2.92;;;;;;;10.43;100.00;101109.84;1812151;77;21083;-76
2022/06/01 03:40:37;;;;;;;;;;;;;;;;;;;;;
2022/06/01 03:48:40;;;;;;;;;;;;;;;;;;;;;
2022/06/01 03:51:12;;;;;;;5.40;2.98;;;;;;;10.19;100.00;101097.17;1639442;85;21113;-76
2022/06/01 03:53:54;;;;;;;4.67;3.17;;;;;;;10.14;100.00;101098.84;1649677;86;21113;-76
2022/06/01 04:01:39;;;;;;;5.65;2.72;;;;;;;9.95;100.00;101096.05;1464251;97;21212;-75
2022/06/01 04:04:15;;;;;;;3.90;2.98;;;;;;;9.94;100.00;101091.77;1453161;97;21322;-75
2022/06/01 04:06:57;;;;;;;;;;;;;;;;;;;;;
2022/06/01 04:09:32;;;;;;;;;;;;;;;;;;;;;
2022/06/01 04:12:08;;;;;;;5.35;2.45;;;;;;;10.08;100.00;101097.06;1532578;92;21665;-76
2022/06/01 04:19:41;;;;;;;;;;;;;;;;;;;;;
2022/06/01 04:24:50;;;;;;;;;;;;;;;;;;;;;
2022/06/01 04:27:15;;;;;;;;;;;;;;;;;;;;;
2022/06/01 04:29:53;;;;;;;;;;;;;;;;;;;;;
2022/06/01 04:32:22;;;;;;;;;;;;;;;;;;;;;
2022/06/01 04:34:52;;;;;;;7.22;3.22;;;;;;;10.00;100.00;101085.44;1743747;81;21094;-76
2022/06/01 04:37:16;;;;;;;4.35;3.17;;;;;;;9.92;100.00;101083.20;1778980;79;21077;-75
2022/06/01 04:39:57;;;;;;;;;;;;;;;;;;;;;
2022/06/01 04:42:34;;;;;;;10.82;3.85;;;;;;;10.09;100.00;101087.66;1741209;80;21143;-76
2022/06/01 04:44:59;;;;;;;;;;;;;;;;;;;;;
2022/06/01 04:50:06;;;;;;;;;;;;;;;;;;;;;
2022/06/01 04:55:11;;;;;;;;;;;;;;;;;;;;;
2022/06/01 04:57:41;;;;;;;;;;;;;;;;;;;;;
2022/06/01 05:00:13;;;;;;;;;;;;;;;;;;;;;
2022/06/01 05:02:45;;;;;;;5.37;3.62;;;;;;;10.14;100.00;101098.84;1712298;82;21169;-75
2022/06/01 05:05:18;;;;;;;6.62;3.37;;;;;;;10.45;100.00;101096.64;1732248;81;21128;-76
2022/06/01 05:07:48;;;;;;;4.33;2.95;;;;;;;10.40;100.00;101095.70;1640269;85;21155;-76
2022/06/01 05:10:21;;;;;;;3.80;2.85;;;;;;;10.53;100.00;101102.71;1625520;86;21102;-76
2022/06/01 05:12:57;;;;;;;;;;;;;;;;;;;;;
2022/06/01 05:20:37;;;;;;;10.18;3.70;;;;;;;10.80;100.00;101100.38;1663361;84;21216;-76
2022/06/01 05:23:12;;;;;;;;;;;;;;;;;;;;;
2022/06/01 06:32:15;;;;;;;5.53;3.35;;;;;;;12.24;100.00;101108.53;1736605;80;21212;-75
2022/06/01 06:34:42;;;;;;;5.22;2.83;;;;;;;12.38;100.00;101115.00;1742159;79;21681;-75
2022/06/01 06:37:10;;;;;;;5.28;2.90;;;;;;;12.51;100.00;101112.00;1795912;79;21141;-75
2022/06/01 06:39:37;;;;;;;7.87;2.95;;;;;;;12.96;100.00;101121.52;1794047;79;21179;-75
2022/06/01 06:42:05;;;;;;;6.17;2.70;;;;;;;13.05;100.00;101130.53;1796325;79;21185;-75
2022/06/01 06:47:16;;;;;;;;;;;;;;;13.95;100.00;101128.64;1735526;78;21605;-76
2022/06/01 06:49:44;;;;;;;4.92;2.22;;;;;;;14.35;100.00;101143.11;1839860;76;20147;-74
2022/06/01 06:52:12;;;;;;;8.98;3.15;;;;;;;15.04;100.00;101139.63;1803393;79;21148;-75
2022/06/01 06:54:40;;;;;;;4.25;2.58;;;;;;;15.27;100.00;101141.16;1792515;78;21569;-76
2022/06/01 06:57:08;;;;;;;3.92;2.00;;;;;;;15.89;100.00;101143.53;1803619;79;21461;-76
2022/06/01 06:59:36;;;;;;;3.42;2.30;;;;;;;16.07;100.00;101143.77;1781021;80;21140;-76
2022/06/01 07:02:05;;;;;;;6.17;1.67;;;;;;;16.68;100.00;101145.11;1844323;77;21136;-76
2022/06/01 07:04:35;;;;;;;5.10;1.62;;;;;;;16.06;100.00;101148.13;1804451;78;21099;-76
2022/06/01 07:07:06;;;;;;;2.65;1.70;;;;;;;16.63;100.00;101150.78;1803276;79;21090;-77
2022/06/01 07:09:31;;;;;;;3.02;1.57;;;;;;;17.18;100.00;101155.13;1805138;79;21051;-78
2022/06/01 07:11:58;;;;;;;4.95;1.67;;;;;;;17.63;100.00;101153.90;1791414;79;21172;-77
2022/06/01 07:14:26;;;;;;;4.45;2.10;;;;;;;16.51;100.00;101156.56;1785466;79;21151;-76
2022/06/01 07:16:53;;;;;;;3.17;1.57;;;;;;;16.86;100.00;101155.64;1837798;78;21580;-77
2022/06/01 07:19:21;;;;;;;2.72;1.40;;;;;;;17.58;100.00;101163.97;1841439;77;21089;-76
2022/06/01 07:21:49;;;;;;;0.82;0.80;;;;;;;17.18;100.00;101167.69;1803979;78;21239;-76
2022/06/01 07:24:16;;;;;;;2.42;1.20;;;;;;;16.91;100.00;101168.52;1806127;79;21090;-75
2022/06/01 07:26:45;;;;;;;3.65;1.30;;;;;;;17.57;100.00;101165.69;1806348;78;21147;-75
2022/06/01 07:29:14;;;;;;;2.30;1.42;;;;;;;17.82;100.00;101161.31;1811463;77;21140;-75
